Time;durP1;ratioP1;P1;durP2;ratioP2;P2;SDS_P1;SDS_P2;PMS_P1;PMS_P2;Temp;Humidity;BMP_temperature;BMP_pressure;BME280_temperature;BME280_humidity;BME280_pressure;Samples;Min_cycle;Max_cycle;Signal;HPM_P1;HPM_P2
2023/12/21 00:01:35;;;;;;;6.43;0.30;;;10.20;99.90;;;;;;5076899;28;20475;-77
2023/12/21 00:04:02;;;;;;;3.50;0.50;;;10.10;99.90;;;;;;5058390;28;20021;-77
2023/12/21 00:06:27;;;;;;;7.22;0.47;;;10.10;99.90;;;;;;5058645;28;20016;-77
2023/12/21 00:08:53;;;;;;;11.18;0.63;;;10.10;99.90;;;;;;5076633;28;20104;-77
2023/12/21 00:11:19;;;;;;;8.10;0.20;;;10.00;99.90;;;;;;5077058;28;20100;-77
2023/12/21 00:13:45;;;;;;;5.47;0.52;;;10.10;99.90;;;;;;5077273;28;20028;-77
2023/12/21 00:16:10;;;;;;;4.15;0.32;;;10.10;99.90;;;;;;5058272;28;20032;-77
2023/12/21 00:18:36;;;;;;;3.00;0.35;;;10.20;99.90;;;;;;5058441;28;20566;-77
2023/12/21 00:21:02;;;;;;;2.95;0.03;;;10.20;99.90;;;;;;5058677;28;20029;-77
2023/12/21 00:23:27;;;;;;;4.78;0.10;;;10.20;99.90;;;;;;5076647;28;20484;-77
2023/12/21 00:25:53;;;;;;;3.10;0.30;;;10.20;99.90;;;;;;5058535;28;20016;-77
2023/12/21 00:28:18;;;;;;;6.38;0.68;;;10.20;99.90;;;;;;5076662;28;20025;-77
2023/12/21 00:30:44;;;;;;;6.75;0.60;;;10.20;99.90;;;;;;5076236;28;20025;-77
2023/12/21 00:33:10;;;;;;;5.13;0.30;;;10.20;99.90;;;;;;5076359;28;20056;-77
2023/12/21 00:35:36;;;;;;;6.88;0.70;;;10.30;99.90;;;;;;5057730;28;20432;-77
2023/12/21 00:38:02;;;;;;;11.65;0.88;;;10.30;99.90;;;;;;5076262;28;20024;-77
2023/12/21 00:40:28;;;;;;;5.30;0.85;;;10.20;99.90;;;;;;5076459;28;20016;-77
2023/12/21 00:42:54;;;;;;;5.47;0.15;;;10.20;99.90;;;;;;5057828;28;20024;-77
2023/12/21 00:45:20;;;;;;;5.25;0.40;;;10.20;99.90;;;;;;5057803;28;20024;-77
2023/12/21 00:47:45;;;;;;;8.68;0.68;;;10.20;99.90;;;;;;5057904;28;20390;-77
2023/12/21 00:50:11;;;;;;;5.22;0.05;;;10.20;99.90;;;;;;5075499;28;20108;-77
2023/12/21 00:52:37;;;;;;;18.27;0.47;;;10.20;99.90;;;;;;5075633;28;20502;-77
2023/12/21 00:55:03;;;;;;;7.53;0.60;;;10.20;99.90;;;;;;5057217;28;20025;-77
2023/12/21 00:57:28;;;;;;;4.60;0.68;;;10.20;99.90;;;;;;5075821;28;20159;-78
2023/12/21 00:59:54;;;;;;;4.22;0.20;;;10.20;99.90;;;;;;5057503;28;20017;-77
2023/12/21 01:02:20;;;;;;;8.57;0.30;;;10.20;99.90;;;;;;5075282;28;20016;-77
2023/12/21 01:04:45;;;;;;;5.93;0.45;;;10.20;99.90;;;;;;5075503;28;20028;-77
2023/12/21 01:07:11;;;;;;;3.67;0.28;;;10.20;99.90;;;;;;5075375;28;20103;-77
2023/12/21 01:09:38;;;;;;;6.35;0.65;;;10.20;99.90;;;;;;5057630;28;20028;-77
2023/12/21 01:12:05;;;;;;;6.13;0.00;;;10.20;99.90;;;;;;5075153;28;20477;-77
2023/12/21 01:14:31;;;;;;;3.92;0.00;;;10.20;99.90;;;;;;5057245;28;20128;-77
2023/12/21 01:16:57;;;;;;;5.78;0.75;;;10.90;99.90;;;;;;5057470;28;20464;-78
2023/12/21 01:19:22;;;;;;;10.68;1.05;;;10.20;99.90;;;;;;5075304;28;20024;-77
2023/12/21 01:21:48;;;;;;;8.30;0.10;;;11.30;99.90;;;;;;5056984;28;20017;-77
2023/12/21 01:24:13;;;;;;;3.75;0.10;;;10.20;99.90;;;;;;5074571;28;20034;-78
2023/12/21 01:26:39;;;;;;;13.18;0.70;;;10.20;99.90;;;;;;5056998;28;20048;-77
2023/12/21 01:29:04;;;;;;;7.50;0.95;;;10.20;99.90;;;;;;5056914;28;20111;-77
2023/12/21 01:31:30;;;;;;;8.23;0.10;;;10.20;99.90;;;;;;5074705;28;20443;-77
2023/12/21 01:33:56;;;;;;;8.10;0.47;;;10.20;99.90;;;;;;5056611;28;20560;-77
2023/12/21 01:36:21;;;;;;;8.13;0.28;;;10.20;99.90;;;;;;5074611;28;20067;-77
2023/12/21 01:38:47;;;;;;;4.07;0.10;;;10.30;99.90;;;;;;5056686;28;20103;-77
2023/12/21 01:41:13;;;;;;;4.35;0.22;;;10.20;99.90;;;;;;5074795;28;20468;-76
2023/12/21 01:43:38;;;;;;;1.05;0.30;;;11.20;99.90;;;;;;5074142;28;20035;-77
2023/12/21 01:46:04;;;;;;;2.38;0.10;;;10.30;99.90;;;;;;5074467;28;20024;-78
2023/12/21 01:48:31;;;;;;;2.33;0.32;;;10.30;99.90;;;;;;5074390;28;20017;-77
2023/12/21 01:51:01;;;;;;;3.20;0.10;;;10.30;99.90;;;;;;5074508;28;20100;-76
2023/12/21 01:53:27;;;;;;;2.83;0.43;;;10.20;99.90;;;;;;5056263;28;20033;-76
2023/12/21 01:55:53;;;;;;;8.30;0.20;;;10.20;99.90;;;;;;5056329;28;20016;-77
2023/12/21 01:58:19;;;;;;;5.78;0.00;;;11.30;99.90;;;;;;5074076;28;20020;-77
2023/12/21 02:00:45;;;;;;;6.82;0.10;;;10.20;99.90;;;;;;5074662;28;20019;-77
2023/12/21 02:03:10;;;;;;;5.30;0.38;;;10.30;99.90;;;;;;5074443;28;20391;-77
2023/12/21 02:05:36;;;;;;;2.65;0.10;;;10.30;99.90;;;;;;5074022;28;20029;-77
2023/12/21 02:08:02;;;;;;;4.20;0.55;;;10.30;99.90;;;;;;5056164;28;20484;-77
2023/12/21 02:10:27;;;;;;;6.93;0.75;;;10.30;99.90;;;;;;5056031;28;20024;-77
2023/12/21 02:12:53;;;;;;;3.50;0.00;;;10.30;99.90;;;;;;5055891;28;20492;-76
2023/12/21 02:15:19;;;;;;;4.10;0.03;;;10.30;99.90;;;;;;5056185;28;20028;-76
2023/12/21 02:17:47;;;;;;;6.57;0.43;;;10.30;99.90;;;;;;5055957;28;20048;-77
2023/12/21 02:20:14;;;;;;;7.45;0.43;;;10.30;99.90;;;;;;5074110;28;20384;-77
2023/12/21 02:22:42;;;;;;;5.60;0.10;;;10.30;99.90;;;;;;5056112;28;20012;-76
2023/12/21 02:25:08;;;;;;;5.47;0.52;;;10.30;99.90;;;;;;5056053;28;20028;-77
2023/12/21 02:27:34;;;;;;;6.32;0.40;;;10.30;99.90;;;;;;5056130;28;20020;-76
2023/12/21 02:29:59;;;;;;;5.10;0.32;;;10.40;99.90;;;;;;5073775;28;20422;-77
2023/12/21 02:32:25;;;;;;;5.18;0.38;;;10.30;99.90;;;;;;5073803;28;20028;-77
2023/12/21 02:34:50;;;;;;;7.65;0.13;;;10.30;99.90;;;;;;5073869;28;20056;-77
2023/12/21 02:37:18;;;;;;;8.80;0.40;;;10.30;99.90;;;;;;5073953;28;20024;-77
2023/12/21 02:39:44;;;;;;;7.57;0.63;;;10.30;99.90;;;;;;5074166;28;20028;-76
2023/12/21 02:42:09;;;;;;;5.25;0.10;;;10.60;99.90;;;;;;5056036;28;20021;-77
2023/12/21 02:44:35;;;;;;;6.32;0.73;;;10.30;99.90;;;;;;5074732;28;20502;-77
2023/12/21 02:47:01;;;;;;;5.78;0.00;;;10.30;99.90;;;;;;5056963;28;20440;-77
2023/12/21 02:49:26;;;;;;;2.90;0.40;;;10.40;99.90;;;;;;5074304;28;20387;-76
2023/12/21 02:51:52;;;;;;;7.50;0.63;;;10.30;99.90;;;;;;5056634;28;20097;-77
2023/12/21 02:54:17;;;;;;;3.63;0.57;;;10.30;99.90;;;;;;5076552;28;20506;-77
2023/12/21 02:56:43;;;;;;;5.60;0.17;;;10.30;99.90;;;;;;5060816;28;20021;-79
2023/12/21 02:59:08;;;;;;;6.90;0.63;;;10.40;99.90;;;;;;5061086;28;20426;-76
2023/12/21 03:01:42;;;;;;;4.30;0.00;;;10.30;99.90;;;;;;5061260;28;20029;-76
2023/12/21 03:04:12;;;;;;;5.65;0.10;;;10.40;99.90;;;;;;5061140;28;20035;-78
2023/12/21 03:06:37;;;;;;;5.57;0.20;;;10.40;99.90;;;;;;5061240;28;20020;-78
2023/12/21 03:09:03;;;;;;;10.55;0.55;;;10.30;99.90;;;;;;5078894;28;20024;-79
2023/12/21 03:11:29;;;;;;;2.20;0.45;;;10.40;99.90;;;;;;5077407;28;20112;-78
2023/12/21 03:13:54;;;;;;;5.45;0.28;;;10.30;99.90;;;;;;5077793;28;20050;-76
2023/12/21 03:16:20;;;;;;;6.38;0.75;;;10.30;99.90;;;;;;5076587;28;20077;-78
2023/12/21 03:18:46;;;;;;;5.53;0.30;;;10.30;99.90;;;;;;5058719;28;20059;-76
2023/12/21 03:21:12;;;;;;;6.72;0.30;;;10.30;99.90;;;;;;5076365;28;20102;-79
2023/12/21 03:23:40;;;;;;;5.05;0.15;;;10.40;99.90;;;;;;5059663;28;20021;-76
2023/12/21 03:26:07;;;;;;;8.20;0.68;;;10.40;99.90;;;;;;5059588;28;20021;-78
2023/12/21 03:28:33;;;;;;;4.90;0.40;;;10.40;99.90;;;;;;5077131;28;20029;-77
2023/12/21 03:30:59;;;;;;;5.72;0.40;;;10.40;99.90;;;;;;5076922;28;20033;-78
2023/12/21 03:33:24;;;;;;;5.95;0.20;;;10.30;99.90;;;;;;5077504;28;20112;-79
2023/12/21 03:35:50;;;;;;;10.15;0.38;;;10.30;99.90;;;;;;5077654;28;20028;-78
2023/12/21 03:38:15;;;;;;;5.18;0.50;;;10.30;99.90;;;;;;5059180;28;20021;-78
2023/12/21 03:40:41;;;;;;;3.53;0.15;;;10.20;99.90;;;;;;5077588;28;20454;-78
2023/12/21 03:43:06;;;;;;;4.30;0.13;;;10.30;99.90;;;;;;5058974;28;20387;-79
2023/12/21 03:45:35;;;;;;;3.05;0.00;;;10.30;99.90;;;;;;5058729;28;20387;-78
2023/12/21 03:48:00;;;;;;;3.83;0.17;;;10.30;99.90;;;;;;5059236;28;20484;-79
2023/12/21 03:50:27;;;;;;;8.38;0.82;;;;;;;;;;5077723;28;20027;-78
2023/12/21 03:52:52;;;;;;;3.33;0.13;;;10.30;99.90;;;;;;5077671;28;20425;-79
2023/12/21 03:55:18;;;;;;;6.75;1.10;;;10.30;99.90;;;;;;5078089;28;20062;-78
2023/12/21 03:57:43;;;;;;;12.05;1.25;;;10.30;99.90;;;;;;5078065;28;20016;-79
2023/12/21 04:00:09;;;;;;;5.80;0.10;;;10.20;99.90;;;;;;5058898;28;20081;-78
2023/12/21 04:02:36;;;;;;;8.02;0.75;;;10.20;99.90;;;;;;5077026;28;20029;-76
2023/12/21 04:05:02;;;;;;;4.78;0.57;;;10.20;99.90;;;;;;5076010;28;20082;-78
2023/12/21 04:07:28;;;;;;;6.38;0.88;;;10.30;99.90;;;;;;5059341;28;20027;-78
2023/12/21 04:09:53;;;;;;;14.05;0.60;;;10.20;99.90;;;;;;5058887;28;20033;-77
2023/12/21 04:12:19;;;;;;;5.65;0.73;;;10.20;99.90;;;;;;5076216;28;20104;-77
2023/12/21 04:14:44;;;;;;;6.93;0.47;;;10.20;99.90;;;;;;5076118;28;20060;-76
2023/12/21 04:17:10;;;;;;;13.82;0.50;;;10.20;99.90;;;;;;5076353;28;20036;-77
2023/12/21 04:19:35;;;;;;;6.55;1.10;;;10.20;99.90;;;;;;5076301;28;20025;-76
2023/12/21 04:22:01;;;;;;;11.52;0.17;;;10.20;99.90;;;;;;5075966;28;20391;-77
2023/12/21 04:24:27;;;;;;;4.57;0.73;;;10.20;99.90;;;;;;5057758;28;20024;-76
2023/12/21 04:26:52;;;;;;;3.70;0.00;;;10.40;99.90;;;;;;5058206;28;20017;-77
2023/12/21 04:29:18;;;;;;;7.68;0.00;;;10.20;99.90;;;;;;5075903;28;20147;-79
2023/12/21 04:31:44;;;;;;;3.88;0.10;;;10.30;99.90;;;;;;5058001;28;20055;-79
2023/12/21 04:34:10;;;;;;;7.07;0.40;;;10.30;99.90;;;;;;5076171;28;20020;-76
2023/12/21 04:36:36;;;;;;;6.70;0.20;;;10.30;99.90;;;;;;5060482;28;20026;-77
2023/12/21 04:39:03;;;;;;;7.45;0.55;;;10.30;99.90;;;;;;5078096;28;20050;-77
2023/12/21 04:41:28;;;;;;;5.72;0.22;;;10.30;99.90;;;;;;5061778;28;20031;-76
2023/12/21 04:43:54;;;;;;;7.38;0.50;;;10.40;99.90;;;;;;5058286;28;20449;-77
2023/12/21 04:46:20;;;;;;;3.53;0.00;;;10.30;99.90;;;;;;5057769;28;20028;-77
2023/12/21 04:48:45;;;;;;;3.95;0.00;;;10.30;99.90;;;;;;5076588;28;20368;-78
2023/12/21 04:51:15;;;;;;;8.20;0.20;;;10.40;99.90;;;;;;5075791;28;20059;-77
2023/12/21 04:53:41;;;;;;;5.25;0.05;;;10.40;99.90;;;;;;5075927;28;20487;-77
2023/12/21 04:56:07;;;;;;;2.92;0.43;;;10.40;99.90;;;;;;5075309;28;20028;-77
2023/12/21 04:58:32;;;;;;;6.90;0.13;;;10.30;99.90;;;;;;5057363;28;20017;-77
2023/12/21 05:00:58;;;;;;;3.83;0.00;;;10.40;99.90;;;;;;5075417;28;20020;-77
2023/12/21 05:03:23;;;;;;;4.50;0.15;;;10.40;99.90;;;;;;5057391;28;20029;-77
2023/12/21 05:05:49;;;;;;;5.40;0.03;;;10.40;99.90;;;;;;5057543;28;20573;-77
2023/12/21 05:08:15;;;;;;;3.75;0.25;;;10.40;99.90;;;;;;5057567;28;20047;-77
2023/12/21 05:10:41;;;;;;;4.25;0.03;;;10.50;99.90;;;;;;5075769;28;20056;-77
2023/12/21 05:13:07;;;;;;;8.75;0.45;;;10.40;99.90;;;;;;5057259;28;20025;-77
2023/12/21 05:15:32;;;;;;;6.30;0.00;;;10.50;99.90;;;;;;5075485;28;20056;-76
2023/12/21 05:17:58;;;;;;;5.60;0.00;;;10.50;99.90;;;;;;5073997;28;20043;-77
2023/12/21 05:20:23;;;;;;;6.53;0.32;;;10.60;99.90;;;;;;5075032;28;20031;-77
2023/12/21 05:22:49;;;;;;;6.60;0.10;;;10.40;99.90;;;;;;5075096;28;20051;-77
2023/12/21 05:25:16;;;;;;;4.80;0.85;;;10.40;99.90;;;;;;5074571;28;20024;-77
2023/12/21 05:27:41;;;;;;;3.55;0.13;;;10.40;99.90;;;;;;5056898;28;20024;-77
2023/12/21 05:30:08;;;;;;;3.38;0.00;;;10.60;99.90;;;;;;5056750;28;20159;-77
2023/12/21 05:32:33;;;;;;;5.05;0.00;;;10.30;99.90;;;;;;5075491;28;20479;-76
2023/12/21 05:34:59;;;;;;;4.97;0.63;;;10.20;99.90;;;;;;5057067;28;20032;-77
2023/12/21 05:37:26;;;;;;;5.70;0.85;;;10.20;99.90;;;;;;5056566;28;20027;-77
2023/12/21 05:39:52;;;;;;;4.10;0.20;;;10.20;99.90;;;;;;5056663;28;20025;-77
2023/12/21 05:42:17;;;;;;;13.65;0.55;;;10.20;99.90;;;;;;5074787;28;20028;-77
2023/12/21 05:44:43;;;;;;;5.55;0.25;;;10.20;99.90;;;;;;5074975;28;20039;-77
2023/12/21 05:47:08;;;;;;;7.25;0.22;;;10.20;99.90;;;;;;5074441;28;20028;-77
2023/12/21 05:49:34;;;;;;;3.88;0.10;;;10.20;99.90;;;;;;5056971;28;20035;-77
2023/12/21 05:52:00;;;;;;;2.92;0.43;;;10.20;99.90;;;;;;5075500;28;20082;-77
2023/12/21 05:54:27;;;;;;;6.00;0.22;;;10.20;99.90;;;;;;5074801;28;20099;-76
2023/12/21 05:56:53;;;;;;;4.43;0.00;;;10.20;99.90;;;;;;5056292;28;20021;-76
2023/12/21 05:59:18;;;;;;;8.93;0.32;;;10.20;99.90;;;;;;5075205;28;20593;-76
2023/12/21 06:01:45;;;;;;;5.82;0.08;;;10.20;99.90;;;;;;5059026;28;20027;-77
2023/12/21 06:04:11;;;;;;;12.23;0.32;;;10.20;99.90;;;;;;5063633;28;20044;-78
2023/12/21 06:06:37;;;;;;;5.05;0.30;;;10.20;99.90;;;;;;5074706;28;20102;-77
2023/12/21 06:09:05;;;;;;;1.30;0.00;;;10.20;99.90;;;;;;5056299;28;20383;-77
2023/12/21 06:11:31;;;;;;;4.53;0.10;;;10.20;99.90;;;;;;5074219;28;20019;-77
2023/12/21 06:13:56;;;;;;;2.72;0.20;;;10.20;99.90;;;;;;5074581;28;20024;-77
2023/12/21 06:16:22;;;;;;;4.47;0.28;;;10.10;99.90;;;;;;5074804;28;20484;-78
2023/12/21 06:18:49;;;;;;;10.55;1.55;;;10.10;99.90;;;;;;5073927;28;20029;-77
2023/12/21 06:21:14;;;;;;;2.33;0.50;;;10.10;99.90;;;;;;5055972;28;20497;-77
2023/12/21 06:23:40;;;;;;;3.88;0.15;;;10.10;99.90;;;;;;5074752;28;20021;-77
2023/12/21 06:26:05;;;;;;;3.50;0.17;;;10.10;99.90;;;;;;5073836;28;20577;-78
2023/12/21 06:28:31;;;;;;;4.72;0.20;;;10.10;99.90;;;;;;5073554;28;20065;-77
2023/12/21 06:30:56;;;;;;;7.93;0.38;;;10.10;99.90;;;;;;5055840;28;20021;-78
2023/12/21 06:33:22;;;;;;;7.72;0.10;;;10.10;99.90;;;;;;5073875;28;20388;-77
2023/12/21 06:35:47;;;;;;;7.55;0.73;;;10.00;99.90;;;;;;5073632;28;20030;-78
2023/12/21 06:38:13;;;;;;;2.03;0.35;;;10.10;99.90;;;;;;5055950;28;20024;-78
2023/12/21 06:40:39;;;;;;;7.80;0.30;;;10.10;99.90;;;;;;5056027;28;20046;-78
2023/12/21 06:43:05;;;;;;;5.72;0.28;;;10.10;99.90;;;;;;5073754;28;20024;-78
2023/12/21 06:45:30;;;;;;;4.50;0.10;;;10.10;99.90;;;;;;5055589;28;20116;-78
2023/12/21 06:47:59;;;;;;;4.28;0.30;;;10.10;99.90;;;;;;5073821;28;20099;-78
2023/12/21 06:50:25;;;;;;;9.40;0.38;;;;;;;;;;5073994;28;20048;-77
2023/12/21 06:52:51;;;;;;;3.97;0.00;;;10.20;99.90;;;;;;5056207;28;20036;-78
2023/12/21 06:55:17;;;;;;;7.35;0.10;;;10.10;99.90;;;;;;5074189;28;20028;-78
2023/12/21 06:57:43;;;;;;;5.13;0.40;;;10.20;99.90;;;;;;5073635;28;20025;-78
2023/12/21 07:00:09;;;;;;;2.83;0.10;;;11.70;99.90;;;;;;5055707;28;20021;-78
2023/12/21 07:02:35;;;;;;;2.92;0.30;;;10.20;99.90;;;;;;5074380;28;20021;-78
2023/12/21 07:05:01;;;;;;;3.63;0.50;;;10.20;99.90;;;;;;5055883;28;20387;-78
2023/12/21 07:07:27;;;;;;;7.97;0.95;;;10.20;99.90;;;;;;5074734;28;20095;-78
2023/12/21 07:09:52;;;;;;;4.47;0.17;;;10.30;99.90;;;;;;5056886;28;20035;-78
2023/12/21 07:12:19;;;;;;;9.75;0.25;;;10.30;99.90;;;;;;5055689;28;20078;-77
2023/12/21 07:14:45;;;;;;;7.70;0.60;;;10.20;99.90;;;;;;5056529;28;20047;-78
2023/12/21 07:17:11;;;;;;;9.32;0.93;;;10.20;99.90;;;;;;5074186;28;20017;-79
2023/12/21 07:19:37;;;;;;;3.42;0.30;;;10.10;99.90;;;;;;5073928;28;20025;-77
2023/12/21 07:22:04;;;;;;;5.00;0.73;;;10.10;99.90;;;;;;5055545;28;20444;-78
2023/12/21 07:24:30;;;;;;;2.13;0.13;;;10.00;99.90;;;;;;5058159;28;20066;-77
2023/12/21 07:26:56;;;;;;;3.40;0.50;;;10.00;99.90;;;;;;5056119;28;20056;-77
2023/12/21 07:29:22;;;;;;;2.78;0.35;;;10.00;99.90;;;;;;5075215;28;20033;-78
2023/12/21 07:31:47;;;;;;;6.20;0.20;;;11.30;99.90;;;;;;5061116;28;20024;-78
2023/12/21 07:34:13;;;;;;;4.50;0.47;;;9.90;99.90;;;;;;5059121;28;20130;-77
2023/12/21 07:36:38;;;;;;;7.20;0.40;;;9.90;99.90;;;;;;5078540;28;20048;-78
2023/12/21 07:39:04;;;;;;;4.97;0.00;;;9.90;99.90;;;;;;5060613;28;20016;-78
2023/12/21 07:41:30;;;;;;;6.93;0.20;;;9.80;99.90;;;;;;5060098;28;20021;-78
2023/12/21 07:43:57;;;;;;;6.22;0.20;;;9.80;99.90;;;;;;5077017;28;20029;-77
2023/12/21 07:46:23;;;;;;;4.05;0.20;;;9.80;99.90;;;;;;5062481;28;20029;-78
2023/12/21 07:48:49;;;;;;;5.93;0.40;;;9.80;99.90;;;;;;5068110;28;20028;-78
2023/12/21 07:51:15;;;;;;;6.82;0.10;;;9.80;99.90;;;;;;5082365;28;20492;-78
2023/12/21 07:53:41;;;;;;;3.80;0.00;;;9.70;99.90;;;;;;5084559;28;20052;-78
2023/12/21 07:56:07;;;;;;;3.50;0.00;;;9.80;99.90;;;;;;5084457;28;20031;-79
2023/12/21 07:58:33;;;;;;;4.57;0.55;;;9.80;99.90;;;;;;5063800;28;20013;-78
2023/12/21 08:00:59;;;;;;;11.38;0.47;;;9.70;99.90;;;;;;5062254;28;20027;-78
2023/12/21 08:03:24;;;;;;;6.10;0.32;;;9.80;99.90;;;;;;5079511;28;20028;-77
2023/12/21 08:05:51;;;;;;;2.97;0.00;;;9.80;99.90;;;;;;5061196;28;20028;-78
2023/12/21 08:08:19;;;;;;;7.03;0.28;;;9.80;99.90;;;;;;5059496;28;20025;-78
2023/12/21 08:10:45;;;;;;;5.28;0.63;;;;;;;;;;5058766;28;20407;-78
2023/12/21 08:13:13;;;;;;;4.90;0.20;;;9.80;99.90;;;;;;5059074;28;20063;-78
2023/12/21 08:15:38;;;;;;;12.10;1.10;;;9.80;99.90;;;;;;5058767;28;20024;-77
2023/12/21 08:18:04;;;;;;;3.75;0.43;;;10.20;99.90;;;;;;5076987;28;20668;-78
2023/12/21 08:20:30;;;;;;;5.00;0.30;;;9.80;99.90;;;;;;5060999;28;20024;-78
2023/12/21 08:22:56;;;;;;;10.93;0.93;;;9.90;99.90;;;;;;5076546;28;20008;-78
2023/12/21 08:25:23;;;;;;;8.73;0.20;;;9.80;99.90;;;;;;5058653;28;20063;-78
2023/12/21 08:27:48;;;;;;;6.75;0.52;;;9.90;99.90;;;;;;5058488;28;20403;-77
2023/12/21 08:30:14;;;;;;;10.65;0.45;;;9.90;99.90;;;;;;5077699;28;20024;-79
2023/12/21 08:32:40;;;;;;;8.52;1.02;;;9.80;99.90;;;;;;5077028;28;20024;-77
2023/12/21 08:35:06;;;;;;;7.63;0.85;;;9.90;99.90;;;;;;5076372;28;20049;-77
2023/12/21 08:37:32;;;;;;;6.57;0.10;;;9.90;99.90;;;;;;5059824;28;20027;-77
2023/12/21 08:39:58;;;;;;;4.95;0.20;;;9.90;99.90;;;;;;5058735;28;20452;-77
2023/12/21 08:42:24;;;;;;;8.95;0.10;;;10.00;99.90;;;;;;5058246;28;20028;-77
2023/12/21 08:44:50;;;;;;;6.82;0.00;;;9.90;99.90;;;;;;5078475;28;20055;-77
2023/12/21 08:47:16;;;;;;;4.45;0.22;;;10.10;99.90;;;;;;5082711;28;20073;-78
2023/12/21 08:49:41;;;;;;;7.28;1.38;;;10.20;99.90;;;;;;5089802;28;20032;-79
2023/12/21 08:52:07;;;;;;;4.07;0.00;;;10.50;99.90;;;;;;5089796;28;20025;-79
2023/12/21 08:54:32;;;;;;;4.13;0.00;;;10.40;99.90;;;;;;5085662;28;20517;-78
2023/12/21 08:56:58;;;;;;;3.83;0.20;;;10.40;99.90;;;;;;5058966;28;20052;-77
2023/12/21 08:59:26;;;;;;;2.40;0.00;;;10.50;99.90;;;;;;5077223;28;20025;-78
2023/12/21 09:01:53;;;;;;;1.90;0.00;;;;;;;;;;5062503;28;20052;-79
2023/12/21 09:04:20;;;;;;;2.83;0.00;;;10.40;99.90;;;;;;5060734;28;20031;-78
2023/12/21 09:06:45;;;;;;;3.58;0.57;;;10.40;99.90;;;;;;5066079;28;20024;-79
2023/12/21 09:09:13;;;;;;;7.75;0.00;;;10.50;99.90;;;;;;5060868;28;20169;-78
2023/12/21 09:11:39;;;;;;;8.15;0.60;;;10.40;99.90;;;;;;5079663;28;20020;-79
2023/12/21 09:14:04;;;;;;;9.40;1.38;;;10.40;99.90;;;;;;5074010;28;20032;-80
2023/12/21 09:16:30;;;;;;;5.72;0.03;;;10.40;99.90;;;;;;5090339;28;20027;-78
2023/12/21 09:18:56;;;;;;;6.57;0.03;;;10.50;99.90;;;;;;5072354;28;20024;-78
2023/12/21 09:21:21;;;;;;;6.25;0.35;;;10.50;99.90;;;;;;5070114;28;20024;-79
2023/12/21 09:23:47;;;;;;;5.53;0.05;;;10.50;99.90;;;;;;5068238;28;20016;-78
2023/12/21 09:26:13;;;;;;;9.23;0.52;;;10.50;99.90;;;;;;5070502;28;20130;-79
2023/12/21 09:28:39;;;;;;;20.00;0.85;;;10.50;99.90;;;;;;5087244;28;20059;-78
2023/12/21 09:31:05;;;;;;;4.30;0.80;;;10.70;99.90;;;;;;5086632;28;20031;-79
2023/12/21 09:33:33;;;;;;;6.22;0.00;;;10.70;99.90;;;;;;5086014;28;20025;-78
2023/12/21 09:36:02;;;;;;;8.33;0.20;;;10.70;99.90;;;;;;5084586;28;20028;-76
2023/12/21 09:38:28;;;;;;;7.72;0.55;;;10.80;99.90;;;;;;5057911;28;20101;-80
2023/12/21 09:40:56;;;;;;;4.28;0.00;;;10.80;99.90;;;;;;5068009;28;20021;-82
2023/12/21 09:43:22;;;;;;;5.45;0.57;;;10.80;99.90;;;;;;5079364;28;20507;-83
2023/12/21 09:45:52;;;;;;;4.50;0.20;;;10.90;99.90;;;;;;5062186;28;20048;-83
2023/12/21 09:48:31;;;;;;;4.65;0.00;;;10.90;99.90;;;;;;5080714;28;20095;-83
2023/12/21 09:51:05;;;;;;;3.83;0.52;;;10.90;99.90;;;;;;5061699;28;20039;-83
2023/12/21 09:53:33;;;;;;;5.13;0.50;;;10.90;99.90;;;;;;5061354;28;20017;-83
2023/12/21 09:56:00;;;;;;;4.90;0.45;;;10.90;99.90;;;;;;5060435;28;20020;-83
2023/12/21 09:58:25;;;;;;;3.15;0.00;;;10.90;99.90;;;;;;5061427;28;20075;-82
2023/12/21 10:00:51;;;;;;;4.03;0.20;;;10.90;99.90;;;;;;5078623;28;20058;-81
2023/12/21 10:03:18;;;;;;;7.60;0.45;;;11.90;99.90;;;;;;5064603;28;20021;-80
2023/12/21 10:05:43;;;;;;;3.40;0.52;;;10.90;99.90;;;;;;5066105;28;20050;-79
2023/12/21 10:08:09;;;;;;;4.38;0.32;;;11.00;99.90;;;;;;5086587;28;20017;-77
2023/12/21 10:10:37;;;;;;;2.13;0.00;;;11.00;99.90;;;;;;5060289;28;20028;-78
2023/12/21 10:13:03;;;;;;;5.97;0.00;;;11.10;99.90;;;;;;5079348;28;20589;-78
2023/12/21 10:15:35;;;;;;;6.90;0.57;;;11.10;99.90;;;;;;5081410;28;20028;-78
2023/12/21 10:18:00;;;;;;;1.42;0.00;;;11.20;99.90;;;;;;5059989;28;20016;-78
2023/12/21 10:20:26;;;;;;;2.55;0.15;;;11.20;99.90;;;;;;5063429;28;20047;-78
2023/12/21 10:22:52;;;;;;;1.98;0.20;;;11.90;99.90;;;;;;5086657;28;20031;-79
2023/12/21 10:25:21;;;;;;;0.65;0.00;;;11.40;99.90;;;;;;5071936;28;20025;-79
2023/12/21 10:27:54;;;;;;;2.13;0.22;;;11.40;99.90;;;;;;5062094;28;20092;-78
2023/12/21 10:30:24;;;;;;;7.53;0.38;;;11.40;99.90;;;;;;5063983;28;20395;-78
2023/12/21 10:32:52;;;;;;;9.13;0.22;;;11.40;99.90;;;;;;5065633;28;20020;-78
2023/12/21 10:35:18;;;;;;;2.38;0.03;;;11.40;99.90;;;;;;5083682;28;20031;-77
2023/12/21 10:37:44;;;;;;;7.80;0.50;;;11.40;99.90;;;;;;5065226;28;20055;-78
2023/12/21 10:40:14;;;;;;;8.75;0.85;;;13.80;99.90;;;;;;5081837;28;20025;-78
2023/12/21 10:42:43;;;;;;;3.33;0.10;;;11.40;99.90;;;;;;5061636;28;20126;-77
2023/12/21 10:45:11;;;;;;;5.60;0.28;;;11.30;99.90;;;;;;5065212;28;20016;-78
2023/12/21 10:47:37;;;;;;;8.10;0.45;;;11.30;99.90;;;;;;5062508;28;20021;-78
2023/12/21 10:50:03;;;;;;;5.07;0.05;;;11.20;99.90;;;;;;5061524;28;20070;-78
2023/12/21 10:52:30;;;;;;;6.95;0.43;;;11.20;99.90;;;;;;5080008;28;20028;-78
2023/12/21 10:54:56;;;;;;;3.65;0.10;;;11.20;99.90;;;;;;5082759;28;20025;-78
2023/12/21 10:57:23;;;;;;;6.82;0.85;;;11.10;99.90;;;;;;5060800;28;20024;-77
2023/12/21 10:59:50;;;;;;;7.07;0.00;;;11.10;99.90;;;;;;5079813;28;20080;-78
2023/12/21 11:02:18;;;;;;;6.57;0.43;;;11.10;99.90;;;;;;5063160;28;20024;-78
2023/12/21 11:04:45;;;;;;;6.28;0.75;;;11.10;99.90;;;;;;5064187;28;20016;-78
2023/12/21 11:07:12;;;;;;;8.13;0.80;;;11.10;99.90;;;;;;5081120;28;20024;-78
2023/12/21 11:09:40;;;;;;;6.07;0.25;;;11.10;99.90;;;;;;5082698;28;20024;-78
2023/12/21 11:12:08;;;;;;;10.50;0.98;;;11.20;99.90;;;;;;5063058;28;20025;-78
2023/12/21 11:14:34;;;;;;;8.55;0.20;;;11.20;99.90;;;;;;5066279;28;20078;-78
2023/12/21 11:17:02;;;;;;;2.97;0.00;;;11.20;99.90;;;;;;5080676;28;20016;-79
2023/12/21 11:19:33;;;;;;;3.25;0.70;;;11.20;99.90;;;;;;5080278;28;20063;-80
2023/12/21 11:22:01;;;;;;;5.75;0.45;;;11.20;99.90;;;;;;5081716;28;20492;-81
2023/12/21 11:24:26;;;;;;;8.45;0.35;;;11.10;99.90;;;;;;5063519;28;20092;-81
2023/12/21 11:26:52;;;;;;;6.53;0.13;;;11.10;99.90;;;;;;5063839;28;20112;-81
2023/12/21 11:29:27;;;;;;;5.25;0.15;;;11.20;99.90;;;;;;5063678;28;20031;-81
2023/12/21 11:31:54;;;;;;;5.25;0.63;;;11.20;99.90;;;;;;5063263;28;20036;-81
2023/12/21 11:34:41;;;;;;;3.35;0.10;;;11.20;99.90;;;;;;5063440;28;20562;-80
2023/12/21 11:37:16;;;;;;;2.42;0.00;;;11.20;99.90;;;;;;5082223;28;20032;-81
2023/12/21 11:39:44;;;;;;;4.50;0.00;;;11.30;99.90;;;;;;5063678;28;20032;-82
2023/12/21 11:42:10;;;;;;;4.13;0.40;;;11.30;99.90;;;;;;5063383;28;20021;-81
2023/12/21 11:44:36;;;;;;;9.43;0.85;;;11.30;99.90;;;;;;5064346;28;20085;-81
2023/12/21 11:47:07;;;;;;;7.53;0.30;;;11.30;99.90;;;;;;5063658;28;20099;-81
2023/12/21 11:49:33;;;;;;;4.97;0.25;;;11.30;99.90;;;;;;5083087;28;20017;-81
2023/12/21 11:51:59;;;;;;;4.15;0.17;;;11.40;99.90;;;;;;5063928;28;20074;-82
2023/12/21 11:54:25;;;;;;;5.10;0.47;;;11.40;99.90;;;;;;5062862;28;20024;-81
2023/12/21 11:56:53;;;;;;;2.10;0.00;;;11.40;99.90;;;;;;5081327;28;20027;-82
2023/12/21 11:59:23;;;;;;;4.07;0.00;;;11.50;99.90;;;;;;5063466;28;20032;-82
2023/12/21 12:01:49;;;;;;;7.63;0.20;;;11.60;99.90;;;;;;5063443;28;20020;-82
2023/12/21 12:04:15;;;;;;;6.05;0.00;;;11.60;99.90;;;;;;5080269;28;20025;-82
2023/12/21 12:06:43;;;;;;;7.00;0.03;;;11.70;99.90;;;;;;5063330;28;20154;-82
2023/12/21 12:09:09;;;;;;;4.82;0.10;;;11.60;99.90;;;;;;5062867;28;20051;-82
2023/12/21 12:11:35;;;;;;;5.00;0.10;;;;;;;;;;5081042;28;20024;-80
2023/12/21 12:14:01;;;;;;;4.35;0.00;;;11.50;99.90;;;;;;5063245;28;20021;-82
2023/12/21 12:16:26;;;;;;;2.50;0.00;;;11.50;99.90;;;;;;5063478;28;20407;-82
2023/12/21 12:18:54;;;;;;;2.42;0.00;;;11.50;99.90;;;;;;5062927;28;20020;-81
2023/12/21 12:21:20;;;;;;;7.85;0.35;;;12.90;99.90;;;;;;5063927;28;20080;-82
2023/12/21 12:23:47;;;;;;;3.13;0.65;;;11.50;99.90;;;;;;5062574;28;20027;-81
2023/12/21 12:26:16;;;;;;;9.10;0.35;;;11.50;99.90;;;;;;5080037;28;20032;-82
2023/12/21 12:28:42;;;;;;;3.30;0.50;;;11.60;99.90;;;;;;5063996;28;20061;-82
2023/12/21 12:31:08;;;;;;;2.10;0.00;;;11.60;99.90;;;;;;5080970;28;20036;-82
2023/12/21 12:33:36;;;;;;;6.93;0.32;;;11.60;99.90;;;;;;5063293;28;20028;-81
2023/12/21 12:36:05;;;;;;;8.20;0.05;;;11.70;99.90;;;;;;5080991;28;20031;-82
2023/12/21 12:38:30;;;;;;;1.75;0.50;;;11.70;99.90;;;;;;5063600;28;20027;-81
2023/12/21 12:41:00;;;;;;;5.68;1.65;;;11.50;99.90;;;;;;5081224;28;20025;-82
2023/12/21 12:43:30;;;;;;;4.57;0.00;;;13.00;99.90;;;;;;5063408;28;20033;-81